Tiempo atmosférico en la estación meteorológica de Láujar De Andarax, Almería (1510 m.)



Fecha
DESCASC
Temp. máxima en grados centígrados (hora)
DESCASC
Temp. mínima en grados centígrados (hora)
DESCASC
Temp. media en grados centígrados
DESCASC
Racha de viento máxima en m/sg (hora)
DESCASC
Velocidad máxima media en intervalos de 10 minutos(hora)
DESCASC
Precipitaciones diarias en mm
DESCASC
Precipitaciones de 00:00 a 06:00 en mm
DESCASC
Precipitaciones de 06:00 a 12:00 en mm
DESCASC
Precipitaciones de 12:00 a 18:00 en mm
DESCASC
Precipitaciones de 18:00 a 24:00 en mm
DESCASC
18-08-2019 29.9 (12:50) 20.1 (05:20) 25 12.78 (16:30) 7.78 (15:00) 0 0 0 0 0
17-08-2019 31 (15:50) 20.7 (08:10) 25.9 11.67 (16:40) 7.22 (18:50) 0 0 0 0 0
16-08-2019 29.7 (17:50) 19.1 (06:00) 24.4 8.89 (15:10) 6.11 (15:00) 0 0 0 0 0
15-08-2019 29.4 (14:00) 18.6 (00:00) 24 10.28 (16:50) 6.67 (16:00) 0 0 0 0 0
14-08-2019 26.8 (15:30) 15.9 (00:00) 21.3 10.28 (16:20) 6.39 (16:50) 0 0 0 0 0
13-08-2019 25 (14:40) 14.2 (00:00) 19.6 10.28 (14:50) 7.22 (15:30) 0 0 0 0 0
12-08-2019 26.5 (11:50) 15.7 (00:00) 21.1 8.06 (14:40) 5.28 (11:30) 0 0 0 0 0
11-08-2019 31 (13:50) 20.9 (00:00) 25.9 13.61 (13:20) 9.44 (13:10) 0 0 0 0 0
10-08-2019 32.8 (17:40) 22 (00:00) 27.4 11.67 (13:50) 6.67 (15:00) 0 0 0 0 0
09-08-2019 33.6 (17:20) 21.8 (00:00) 27.7 13.33 (15:20) 9.17 (13:30) 0 0 0 0 0
08-08-2019 32.7 (15:50) 21.8 (00:00) 27.3 12.78 (17:30) 8.61 (18:00) 0 0 0 0 0
07-08-2019 34.2 (16:40) 21.3 (00:00) 27.8 13.61 (14:30) 9.44 (12:50) 0 0 0 0 0
06-08-2019 33 (16:10) 20 (00:00) 26.5 14.72 (14:10) 10 (14:10) 0 0 0 0 0
05-08-2019 32.7 (14:20) 19.8 (00:00) 26.3 -- (--) -- (--) -- 0 0 -- 0
04-08-2019 30.9 (15:40) 15.9 (00:00) 23.4 7.78 (14:50) 5.28 (17:10) 0 0 0 0 0
03-08-2019 29.7 (15:40) 18.5 (00:00) 24.1 8.89 (15:20) 5.56 (15:20) 0 0 0 0 0
02-08-2019 29.4 (17:10) 18.1 (00:00) 23.8 9.44 (17:20) 6.67 (17:20) 0 0 0 0 0
01-08-2019 30.8 (16:40) 16 (00:00) 23.4 11.67 (11:20) 7.78 (09:10) 0 0 0 0 0
31-07-2019 29.2 (15:30) 16.3 (00:00) 22.8 9.17 (12:30) 5 (12:30) 0 0 0 0 0
30-07-2019 29.7 (17:50) 18.1 (00:00) 23.9 9.72 (14:00) 6.11 (14:00) 0 0 0 0 0
29-07-2019 28.6 (17:10) 16.4 (00:00) 22.5 9.72 (14:40) 5.83 (14:50) 0 0 0 0 0
28-07-2019 26 (15:30) 15.3 (00:00) 20.7 9.44 (15:50) 5.28 (15:10) 0 0 0 0 0
27-07-2019 27.6 (14:20) 17 (00:00) 22.3 13.89 (19:00) 8.33 (20:00) 0 0 0 0 0
26-07-2019 28.6 (17:20) 17.6 (00:00) 23.1 13.06 (14:50) 8.61 (12:00) 0 0 0 0 0
25-07-2019 30 (15:30) 20.1 (00:00) 25.1 11.67 (16:20) 7.5 (16:00) 0 0 0 0 0
24-07-2019 30.6 (16:10) 20.5 (00:00) 25.6 9.72 (14:50) 4.44 (15:40) 0 0 0 0 0
23-07-2019 31.7 (15:10) 19.9 (00:00) 25.8 9.17 (13:20) 4.44 (10:40) 0 0 0 0 0

Gráficas

Temp. máximas Temp. mínimas Temp. medias Precipitaciones Rachas de viento máximas Velocidades máximas media en intervalos de 10 minutos

Datos horarios

Fecha y hora oficial Temperatura (ºC) Velocidad del viento (km/h) Dirección del viento Racha (km/h) Dirección de racha Precipitación (mm) Presión (hPa) Tendencia (hPa) Humedad (%)
2019-08-21 23:00:00 16.3 4 Sur 12 Sur 0 -- -- 98
2019-08-21 22:00:00 16.7 5 Sur 12 Sudeste 0 -- -- 97
2019-08-21 21:00:00 17 8 Noroeste 15 Oeste 0 -- -- 96
2019-08-21 20:00:00 17.7 9 Noroeste 18 Norte 0 -- -- 94
2019-08-21 19:00:00 20.5 14 Noroeste 23 Noroeste 0 -- -- 81
2019-08-21 18:00:00 23.7 18 Noroeste 28 Noroeste 0 -- -- 69
2019-08-21 17:00:00 22.7 14 Norte 27 Noroeste 0 -- -- 70
2019-08-21 16:00:00 22 18 Norte 28 Noroeste 0 -- -- 72
2019-08-21 15:00:00 22.4 10 Sudoeste 25 Sudoeste 0 -- -- 62
2019-08-21 14:00:00 22.4 10 Sur 27 Sur 0 -- -- 62
2019-08-21 13:00:00 22.4 12 Sur 35 Sur 0 -- -- 63
2019-08-21 12:00:00 20.6 16 Sudoeste 30 Sur 0 -- -- 70
2019-08-21 11:00:00 20 13 Sur 26 Sur 0 -- -- 74
2019-08-21 10:00:00 18.3 14 Sur 25 Sur 0 -- -- 79
2019-08-21 09:00:00 16.7 8 Sur 19 Sudeste 0 -- -- 88
2019-08-21 08:00:00 15.1 7 Sur 16 Sudeste 0 -- -- 96
2019-08-21 07:00:00 15.1 9 Sudeste 20 Sudeste 0 -- -- 89
2019-08-21 06:00:00 15.2 9 Sudeste 18 Sudeste 0 -- -- 96
2019-08-21 05:00:00 15.9 6 Sur 21 Sur 0 -- -- 96
2019-08-21 04:00:00 16.1 10 Sur 18 Sur 0 -- -- 94
2019-08-21 03:00:00 16.4 8 Sudeste 23 Este 0 -- -- 83
2019-08-21 02:00:00 16.2 6 Sur 20 Sur 0 -- -- 86
2019-08-21 01:00:00 16.7 6 Sudeste 23 Sur 0 -- -- 88
2019-08-21 00:00:00 17.1 7 Sur 15 Sudeste 0 -- -- 87
2019-08-20 23:00:00 17.4 8 Sur 22 Sudeste 0 -- -- 86
2019-08-20 22:00:00 17.7 9 Sur 19 Sur 0 -- -- 86
2019-08-20 21:00:00 19.6 6 Sur 13 Sudoeste 0 -- -- 83
2019-08-20 20:00:00 22.7 6 Sudoeste 15 Sudoeste 0 -- -- 65
2019-08-20 19:00:00 22.3 8 Sudoeste 22 Oeste 0 -- -- 64
2019-08-20 18:00:00 24.8 13 Oeste 28 Noroeste 0 -- -- 54
2019-08-20 17:00:00 25.5 14 Noroeste 28 Noroeste 0 -- -- 52
2019-08-20 16:00:00 27 21 Noroeste 36 Noroeste 0 -- -- 51
2019-08-20 15:00:00 28 15 Noroeste 29 Oeste 0 -- -- 34
2019-08-20 14:00:00 27.4 15 Noroeste 28 Norte 0 -- -- 19
2019-08-20 13:00:00 26.5 16 Noroeste 28 Oeste 0 -- -- 31
2019-08-20 12:00:00 24.6 13 Oeste 21 Oeste 0 -- -- 23
2019-08-20 11:00:00 22.9 9 Noroeste 13 Oeste 0 -- -- 37
2019-08-20 10:00:00 22.1 5 Oeste 12 Noroeste 0 -- -- 31
2019-08-20 09:00:00 20.8 8 Norte 23 Norte 0 -- -- 23
2019-08-20 08:00:00 19.4 15 Norte 23 Norte 0 -- -- 26
2019-08-20 07:00:00 19.5 17 Norte 23 Norte 0 -- -- 31
2019-08-20 06:00:00 19.1 13 Norte 19 Norte 0 -- -- 35
2019-08-20 05:00:00 18.8 10 Nordeste 15 Norte 0 -- -- 33
2019-08-20 04:00:00 18.4 9 Norte 13 Norte 0 -- -- 34
2019-08-20 03:00:00 19.1 6 Nordeste 10 Noroeste 0 -- -- 32
2019-08-20 02:00:00 19.3 8 Norte 13 Norte 0 -- -- 30
2019-08-20 01:00:00 19.9 4 Norte 8 Norte 0 -- -- 31
2019-08-20 00:00:00 20.4 6 Nordeste 13 Norte 0 -- -- 29
2019-08-19 23:00:00 21 13 Norte 15 Norte 0 -- -- 29
2019-08-19 22:00:00 21.8 4 Noroeste 9 Norte 0 -- -- 30
2019-08-19 21:00:00 23 5 Noroeste 19 Noroeste 0 -- -- 29
2019-08-19 20:00:00 28.1 15 Noroeste 26 Noroeste 0 -- -- 24
2019-08-19 19:00:00 28.4 19 Noroeste 33 Noroeste 0 -- -- 23
2019-08-19 18:00:00 28.9 23 Noroeste 41 Noroeste 0 -- -- 21
2019-08-19 17:00:00 30.2 21 Noroeste 36 Oeste 0 -- -- 23
2019-08-19 16:00:00 30.2 23 Noroeste 40 Noroeste 0 -- -- 24
2019-08-19 15:00:00 29.8 21 Noroeste 38 Noroeste 0 -- -- 23
2019-08-19 14:00:00 28.8 18 Noroeste 32 Noroeste 0 -- -- 24
2019-08-19 13:00:00 27.9 18 Noroeste 30 Noroeste 0 -- -- 26
2019-08-19 12:00:00 26.7 14 Noroeste 24 Noroeste 0 -- -- 25
2019-08-19 11:00:00 25.3 12 Oeste 19 Noroeste 0 -- -- 27
2019-08-19 10:00:00 23.7 10 Noroeste 17 Noroeste 0 -- -- 34
2019-08-19 09:00:00 22.7 4 Norte 5 Norte 0 -- -- 33
2019-08-19 08:00:00 21.2 2 Norte 7 Nordeste 0 -- -- 36
2019-08-19 07:00:00 20.7 3 Norte 8 Nordeste 0 -- -- 38
2019-08-19 06:00:00 20.9 8 Norte 12 Norte 0 -- -- 39
2019-08-19 05:00:00 21.4 7 Norte 15 Norte 0 -- -- 37
2019-08-19 04:00:00 21.5 7 Norte 13 Norte 0 -- -- 37
2019-08-19 03:00:00 22.1 9 Norte 13 Noroeste 0 -- -- 35
2019-08-19 02:00:00 22.7 3 Oeste 7 Este 0 -- -- 33
2019-08-19 01:00:00 22.9 0 Calma 8 Nordeste 0 -- -- 33
2019-08-19 00:00:00 22 6 Nordeste 18 Nordeste 0 -- -- 36
2019-08-18 23:00:00 24.5 17 Este 39 Nordeste 0 -- -- 31
2019-08-18 22:00:00 23.2 3 Nordeste 16 Norte 0 -- -- 37
2019-08-18 21:00:00 23.3 11 Norte 22 Norte 0 -- -- 36
2019-08-18 20:00:00 27.5 18 Norte 30 Norte 0 -- -- 28
2019-08-18 19:00:00 28.5 22 Noroeste 35 Noroeste 0 -- -- 26
2019-08-18 18:00:00 29.2 24 Noroeste 37 Noroeste 0 -- -- 25
2019-08-18 17:00:00 29.3 28 Noroeste 46 Noroeste 0 -- -- 24
2019-08-18 16:00:00 29.8 28 Noroeste 39 Norte 0 -- -- 23
2019-08-18 15:00:00 29.5 28 Noroeste 39 Noroeste 0 -- -- 24
2019-08-18 14:00:00 29.3 23 Noroeste 35 Norte 0 -- -- 21
2019-08-18 13:00:00 29.6 21 Noroeste 31 Norte 0 -- -- 22
2019-08-18 12:00:00 28 17 Noroeste 26 Noroeste 0 -- -- 24
2019-08-18 11:00:00 27.2 9 Oeste 15 Oeste 0 -- -- 23
2019-08-18 10:00:00 25.7 3 Noroeste 6 Noroeste 0 -- -- 25
2019-08-18 09:00:00 23.1 5 Nordeste 11 Norte 0 -- -- 28
2019-08-18 08:00:00 20.9 8 Norte 10 Norte 0 -- -- 31
2019-08-18 07:00:00 21.1 3 Norte 7 Sudeste 0 -- -- 33
2019-08-18 06:00:00 21.9 0 Calma 10 Norte 0 -- -- 31
2019-08-18 05:00:00 20.5 6 Norte 10 Nordeste 0 -- -- 33
2019-08-18 04:00:00 21.1 6 Norte 13 Norte 0 -- -- 30
2019-08-18 03:00:00 21.1 9 Norte 13 Norte 0 -- -- 30
2019-08-18 02:00:00 21.2 9 Norte 14 Norte 0 -- -- 30
2019-08-18 01:00:00 21.7 11 Norte 17 Norte 0 -- -- 29
2019-08-18 00:00:00 21.8 9 Norte 13 Norte 0 -- -- 30
2019-08-17 23:00:00 21.6 8 Norte 11 Norte 0 -- -- 33
2019-08-17 22:00:00 22.1 6 Norte 9 Norte 0 -- -- 38
2019-08-17 21:00:00 23 8 Norte 24 Noroeste 0 -- -- 38
2019-08-17 20:00:00 27.3 21 Noroeste 33 Norte 0 -- -- 32
2019-08-17 19:00:00 28.8 25 Noroeste 37 Noroeste 0 -- -- 28
2019-08-17 18:00:00 30.4 24 Noroeste 37 Noroeste 0 -- -- 27
2019-08-17 17:00:00 30.3 23 Noroeste 42 Noroeste 0 -- -- 25
2019-08-17 16:00:00 30.9 21 Noroeste 36 Noroeste 0 -- -- 22
2019-08-17 15:00:00 30 23 Noroeste 36 Noroeste 0 -- -- 27
2019-08-17 14:00:00 30 22 Noroeste 34 Noroeste 0 -- -- 25
2019-08-17 13:00:00 29.7 18 Noroeste 33 Noroeste 0 -- -- 26
2019-08-17 12:00:00 28.3 14 Noroeste 25 Noroeste 0 -- -- 26
2019-08-17 11:00:00 26.8 10 Oeste 16 Noroeste 0 -- -- 28
2019-08-17 10:00:00 24.9 6 Noroeste 10 Noroeste 0 -- -- 33
2019-08-17 09:00:00 22.3 8 Noroeste 13 Noroeste 0 -- -- 34
2019-08-17 08:00:00 20.8 4 Norte 7 Nordeste 0 -- -- 37
2019-08-17 07:00:00 21.2 4 Nordeste 7 Nordeste 0 -- -- 34
2019-08-17 06:00:00 21.3 2 Nordeste 6 Nordeste 0 -- -- 36
2019-08-17 05:00:00 21.7 3 Norte 6 Norte 0 -- -- 34
2019-08-17 04:00:00 22.5 2 Nordeste 7 Este 0 -- -- 33
2019-08-17 03:00:00 22.4 3 Nordeste 12 Norte 0 -- -- 37
2019-08-17 02:00:00 22.3 10 Nordeste 19 Nordeste 0 -- -- 37
2019-08-17 01:00:00 22.6 13 Nordeste 21 Nordeste 0 -- -- 37
2019-08-17 00:00:00 23.1 4 Sudeste 8 Este 0 -- -- 36
2019-08-16 23:00:00 21.3 0 Calma 9 Nordeste 0 -- -- 43
2019-08-16 22:00:00 21.7 7 Norte 14 Norte 0 -- -- 43
2019-08-16 21:00:00 21.7 12 Norte 22 Noroeste 0 -- -- 42
2019-08-16 20:00:00 26.1 19 Noroeste 27 Norte 0 -- -- 30
2019-08-16 19:00:00 27.8 21 Noroeste 31 Noroeste 0 -- -- 31
2019-08-16 18:00:00 28.7 19 Noroeste 31 Noroeste 0 -- -- 31
2019-08-16 17:00:00 29.2 21 Noroeste 30 Oeste 0 -- -- 33
2019-08-16 16:00:00 28.4 20 Noroeste 32 Noroeste 0 -- -- 31
2019-08-16 15:00:00 29 22 Noroeste 31 Noroeste 0 -- -- 28
2019-08-16 14:00:00 29.6 17 Noroeste 28 Noroeste 0 -- -- 27
2019-08-16 13:00:00 27.1 15 Noroeste 27 Noroeste 0 -- -- 30
2019-08-16 12:00:00 25.5 15 Noroeste 21 Oeste 0 -- -- 32
2019-08-16 11:00:00 24.7 8 Noroeste 13 Noroeste 0 -- -- 29
2019-08-16 10:00:00 22.9 8 Noroeste 15 Norte 0 -- -- 29
2019-08-16 09:00:00 20.9 9 Noroeste 14 Noroeste 0 -- -- 33
2019-08-16 08:00:00 19.8 3 Norte 6 Nordeste 0 -- -- 34
2019-08-16 07:00:00 19.9 0 Calma 10 Norte 0 -- -- 36
2019-08-16 06:00:00 19.1 8 Norte 13 Norte 0 -- -- 43
2019-08-16 05:00:00 19.6 9 Norte 15 Noroeste 0 -- -- 42
2019-08-16 04:00:00 20.8 0 Calma 6 Este 0 -- -- 40
2019-08-16 03:00:00 21.1 3 Nordeste 11 Noroeste 0 -- -- 41
2019-08-16 02:00:00 21.7 6 Noroeste 10 Norte 0 -- -- 40
2019-08-16 01:00:00 21.5 8 Norte 10 Norte 0 -- -- 38
2019-08-16 00:00:00 21.4 3 Nordeste 7 Nordeste 0 -- -- 36
2019-08-15 23:00:00 21 0 Calma 7 Sudeste 0 -- -- 43
2019-08-15 22:00:00 20.9 4 Este 8 Este 0 -- -- 45
2019-08-15 21:00:00 21.9 5 Norte 17 Norte 0 -- -- 41
2019-08-15 20:00:00 26.7 14 Norte 25 Noroeste 0 -- -- 36
2019-08-15 19:00:00 27.2 17 Noroeste 27 Norte 0 -- -- 35
2019-08-15 18:00:00 27.2 18 Noroeste 32 Noroeste 0 -- -- 33
2019-08-15 17:00:00 27.3 22 Noroeste 37 Noroeste 0 -- -- 35
2019-08-15 16:00:00 27.4 24 Noroeste 35 Noroeste 0 -- -- 35
2019-08-15 15:00:00 28.5 19 Noroeste 32 Noroeste 0 -- -- 29
2019-08-15 14:00:00 29.4 17 Noroeste 27 Noroeste 0 -- -- 29
2019-08-15 13:00:00 26.3 17 Noroeste 30 Noroeste 0 -- -- 36
2019-08-15 12:00:00 25.9 15 Norte 25 Norte 0 -- -- 36
2019-08-15 11:00:00 23.3 13 Noroeste 19 Noroeste 0 -- -- 42
2019-08-15 10:00:00 23 6 Oeste 9 Oeste 0 -- -- 46
2019-08-15 09:00:00 21.7 0 Calma 3 Nordeste 0 -- -- 50
2019-08-15 08:00:00 19.5 0 Calma 7 Noroeste 0 -- -- 56
2019-08-15 07:00:00 19.2 3 Sudoeste 8 Norte 0 -- -- 59
2019-08-15 06:00:00 18.8 6 Nordeste 9 Nordeste 0 -- -- 63
2019-08-15 05:00:00 18.7 6 Nordeste 10 Nordeste 0 -- -- 63
2019-08-15 04:00:00 19.4 5 Norte 9 Norte 0 -- -- 58
2019-08-15 03:00:00 19.4 4 Norte 6 Este 0 -- -- 55
2019-08-15 02:00:00 19.9 3 Sudeste 10 Sudeste 0 -- -- 53
2019-08-15 01:00:00 19.4 0 Calma 6 Este 0 -- -- 56
2019-08-15 00:00:00 19.1 0 Calma 8 Nordeste 0 -- -- 60
2019-08-14 23:00:00 19.2 4 Este 7 Este 0 -- -- 60
2019-08-14 22:00:00 19.6 4 Nordeste 12 Norte 0 -- -- 60
2019-08-14 21:00:00 20.4 9 Norte 18 Noroeste 0 -- -- 55
2019-08-14 20:00:00 23.8 15 Noroeste 26 Noroeste 0 -- -- 46
2019-08-14 19:00:00 25.7 21 Noroeste 32 Norte 0 -- -- 43
2019-08-14 18:00:00 26.5 22 Noroeste 37 Noroeste 0 -- -- 48
2019-08-14 17:00:00 26 22 Noroeste 37 Noroeste 0 -- -- 50
2019-08-14 16:00:00 26.8 22 Noroeste 35 Noroeste 0 -- -- 48
2019-08-14 15:00:00 26 21 Noroeste 34 Noroeste 0 -- -- 41
2019-08-14 14:00:00 23.9 21 Noroeste 33 Noroeste 0 -- -- 60
2019-08-14 13:00:00 24 17 Noroeste 29 Noroeste 0 -- -- 56
2019-08-14 12:00:00 22.2 10 Oeste 20 Oeste 0 -- -- 55
2019-08-14 11:00:00 21 6 Oeste 13 Oeste 0 -- -- 55
2019-08-14 10:00:00 20.4 5 Sudoeste 12 Sudoeste 0 -- -- 51
2019-08-14 09:00:00 19 4 Sur 8 Sudeste 0 -- -- 48
2019-08-14 08:00:00 17.2 0 Calma 5 Este 0 -- -- 57
2019-08-14 07:00:00 16.9 2 Norte 10 Sudeste 0 -- -- 61
2019-08-14 06:00:00 16.1 5 Sudeste 10 Norte 0 -- -- 61
2019-08-14 05:00:00 17 10 Nordeste 14 Nordeste 0 -- -- 65
2019-08-14 04:00:00 16.9 9 Nordeste 12 Nordeste 0 -- -- 67
2019-08-14 03:00:00 16.7 4 Nordeste 9 Nordeste 0 -- -- 55
2019-08-14 02:00:00 16.3 4 Nordeste 9 Este 0 -- -- 58
2019-08-14 01:00:00 16.6 0 Calma 9 Nordeste 0 -- -- 80
2019-08-14 00:00:00 16.3 5 Sudeste 12 Este 0 -- -- 87
2019-08-13 23:00:00 16.4 0 Calma 4 Sudoeste 0 -- -- 97
2019-08-13 22:00:00 16.4 2 Sur 12 Norte 0 -- -- 93
2019-08-13 21:00:00 16.9 6 Norte 19 Norte 0 -- -- 93
2019-08-13 20:00:00 17.3 12 Norte 23 Norte 0 -- -- 97
2019-08-13 19:00:00 18.7 17 Norte 26 Norte 0 -- -- 87
2019-08-13 18:00:00 19.2 18 Noroeste 30 Noroeste 0 -- -- 86
2019-08-13 17:00:00 19.1 19 Noroeste 31 Noroeste 0 -- -- 85
2019-08-13 16:00:00 21.3 21 Noroeste 37 Noroeste 0 -- -- 73
2019-08-13 15:00:00 22.3 23 Noroeste 37 Norte 0 -- -- 63
2019-08-13 14:00:00 22.7 15 Noroeste 28 Oeste 0 -- -- 59
2019-08-13 13:00:00 21.8 10 Oeste 21 Oeste 0 -- -- 47
2019-08-13 12:00:00 21.8 13 Oeste 25 Sudoeste 0 -- -- 48
2019-08-13 11:00:00 20.4 12 Sur 28 Sudoeste 0 -- -- 62
2019-08-13 10:00:00 18.8 8 Sur 23 Sur 0 -- -- 69
2019-08-13 09:00:00 16.9 8 Sur 17 Sur 0 -- -- 70
2019-08-13 08:00:00 14.3 8 Sur 12 Sur 0 -- -- 55
2019-08-13 07:00:00 14.7 7 Sudeste 12 Sudeste 0 -- -- 49
2019-08-13 06:00:00 15 6 Sudeste 14 Sudeste 0 -- -- 55
2019-08-13 05:00:00 16.1 10 Sudeste 17 Este 0 -- -- 55
2019-08-13 04:00:00 15.3 6 Sudeste 14 Sudeste 0 -- -- 68
2019-08-13 03:00:00 14.4 8 Sudeste 13 Sur 0 -- -- 74
2019-08-13 02:00:00 14.8 6 Sudeste 14 Sudeste 0 -- -- 80
2019-08-13 01:00:00 14.6 8 Sur 14 Sur 0 -- -- 83
2019-08-13 00:00:00 15.7 5 Sur 10 Sur 0 -- -- 76
2019-08-12 23:00:00 16.6 3 Sudeste 7 Sur 0 -- -- 61
2019-08-12 22:00:00 17.7 2 Este 6 Norte 0 -- -- 54
2019-08-12 21:00:00 19.2 2 Oeste 11 Sudoeste 0 -- -- 56
2019-08-12 20:00:00 22.4 7 Sudoeste 17 Sudoeste 0 -- -- 43
2019-08-12 19:00:00 24.1 10 Sudoeste 25 Noroeste 0 -- -- 38
2019-08-12 18:00:00 25.1 12 Oeste 26 Oeste 0 -- -- 35
2019-08-12 17:00:00 25.9 13 Noroeste 26 Oeste 0 -- -- 30
2019-08-12 16:00:00 23.2 12 Noroeste 27 Noroeste 0 -- -- 37
2019-08-12 15:00:00 23.8 15 Noroeste 29 Noroeste 0 -- -- 33
2019-08-12 14:00:00 25.2 16 Noroeste 27 Oeste 0 -- -- 26
2019-08-12 13:00:00 25.5 14 Noroeste 26 Noroeste 0 -- -- 20
2019-08-12 12:00:00 24.2 16 Oeste 28 Oeste 0 -- -- 18
2019-08-12 11:00:00 23.4 14 Oeste 21 Noroeste 0 -- -- 16
2019-08-12 10:00:00 22.4 4 Noroeste 18 Noroeste 0 -- -- 23
2019-08-12 09:00:00 20.6 0 Calma 11 Nordeste 0 -- -- 26
2019-08-12 08:00:00 18.2 9 Norte 15 Noroeste 0 -- -- 31
2019-08-12 07:00:00 18.3 8 Norte 24 Noroeste 0 -- -- 30
2019-08-12 06:00:00 19.2 17 Norte 23 Norte 0 -- -- 28
2019-08-12 05:00:00 18.9 5 Norte 11 Noroeste 0 -- -- 34
2019-08-12 04:00:00 19 5 Norte 15 Norte 0 -- -- 35
2019-08-12 03:00:00 19.5 7 Nordeste 12 Nordeste 0 -- -- 37
2019-08-12 02:00:00 20.9 3 Oeste 9 Oeste 0 -- -- 34
2019-08-12 01:00:00 20.5 2 Oeste 7 Noroeste 0 -- -- 35
2019-08-12 00:00:00 21.4 2 Norte 10 Norte 0 -- -- 33
2019-08-11 23:00:00 21.6 8 Norte 21 Norte 0 -- -- 32
2019-08-11 22:00:00 22.9 3 Noroeste 15 Norte 0 -- -- 31
2019-08-11 21:00:00 23.4 10 Norte 19 Noroeste 0 -- -- 30
2019-08-11 20:00:00 27.3 14 Noroeste 31 Norte 0 -- -- 26
2019-08-11 19:00:00 28.8 18 Noroeste 31 Noroeste 0 -- -- 25
2019-08-11 18:00:00 28 21 Noroeste 27 Noroeste 0 -- -- 28
2019-08-11 17:00:00 28.5 16 Noroeste 31 Noroeste 0 -- -- 31
2019-08-11 16:00:00 29.4 24 Noroeste 39 Noroeste 0 -- -- 30
2019-08-11 15:00:00 30.6 26 Noroeste 46 Norte 0 -- -- 26
2019-08-11 14:00:00 31 25 Norte 49 Noroeste 0 -- -- 25
2019-08-11 13:00:00 29.5 26 Noroeste 40 Noroeste 0 -- -- 25
2019-08-11 12:00:00 28.4 20 Noroeste 33 Noroeste 0 -- -- 21
2019-08-11 11:00:00 26.6 21 Noroeste 31 Norte 0 -- -- 20
2019-08-11 10:00:00 26.1 18 Noroeste 26 Norte 0 -- -- 18
2019-08-11 09:00:00 23.7 13 Norte 26 Norte 0 -- -- 20
2019-08-11 08:00:00 22.3 20 Norte 26 Norte 0 -- -- 19
2019-08-11 07:00:00 21.4 22 Norte 27 Norte 0 -- -- 27
2019-08-11 06:00:00 21.2 17 Norte 21 Norte 0 -- -- 25
2019-08-11 05:00:00 21.6 5 Norte 12 Norte 0 -- -- 21
2019-08-11 04:00:00 21.5 10 Norte 14 Norte 0 -- -- 20
2019-08-11 03:00:00 23.1 5 Norte 16 Norte 0 -- -- 14
2019-08-11 02:00:00 23.2 6 Norte 14 Norte 0 -- -- 14
2019-08-11 01:00:00 22.7 7 Norte 12 Norte 0 -- -- 16
2019-08-11 00:00:00 23.2 10 Norte 19 Norte 0 -- -- 14
2019-08-10 23:00:00 23.9 14 Norte 17 Norte 0 -- -- 16
2019-08-10 22:00:00 24.7 13 Norte 18 Norte 0 -- -- 16
2019-08-10 21:00:00 26 12 Norte 21 Noroeste 0 -- -- 17
2019-08-10 20:00:00 30.1 18 Noroeste 30 Noroeste 0 -- -- 15
2019-08-10 19:00:00 31.8 22 Noroeste 37 Norte 0 -- -- 17
2019-08-10 18:00:00 31.7 21 Noroeste 36 Norte 0 -- -- 18
2019-08-10 17:00:00 31.8 23 Noroeste 39 Noroeste 0 -- -- 18
2019-08-10 16:00:00 32.1 24 Norte 38 Noroeste 0 -- -- 17
2019-08-10 15:00:00 31.8 24 Noroeste 36 Noroeste 0 -- -- 15
2019-08-10 14:00:00 30.8 21 Noroeste 42 Oeste 0 -- -- 15
2019-08-10 13:00:00 30.7 19 Noroeste 30 Noroeste 0 -- -- 12
2019-08-10 12:00:00 28.1 13 Oeste 26 Oeste 0 -- -- 10
2019-08-10 11:00:00 27.4 15 Noroeste 23 Noroeste 0 -- -- 15
2019-08-10 10:00:00 28 7 Norte 15 Noroeste 0 -- -- 8
2019-08-10 09:00:00 26.7 3 Sur 9 Norte 0 -- -- 17
2019-08-10 08:00:00 23.7 4 Sudeste 9 Sudeste 0 -- -- 16
2019-08-10 07:00:00 24.1 4 Sudeste 8 Sudeste 0 -- -- 16
2019-08-10 06:00:00 22.9 5 Norte 12 Norte 0 -- -- 19
2019-08-10 05:00:00 22.7 6 Norte 15 Norte 0 -- -- 24
2019-08-10 04:00:00 23.1 8 Norte 18 Norte 0 -- -- 24
2019-08-10 03:00:00 23.6 14 Norte 18 Norte 0 -- -- 23
2019-08-10 02:00:00 24.5 4 Norte 15 Norte 0 -- -- 22
2019-08-10 01:00:00 24.7 9 Norte 14 Norte 0 -- -- 23
2019-08-10 00:00:00 25.1 4 Nordeste 9 Norte 0 -- -- 24
2019-08-09 23:00:00 25.1 7 Norte 10 Norte 0 -- -- 25
2019-08-09 22:00:00 25.4 9 Norte 18 Norte 0 -- -- 24
2019-08-09 21:00:00 27 8 Norte 23 Norte 0 -- -- 18
2019-08-09 20:00:00 31 17 Noroeste 26 Noroeste 0 -- -- 15
2019-08-09 19:00:00 32.4 19 Noroeste 33 Norte 0 -- -- 13
2019-08-09 18:00:00 33.1 23 Norte 39 Norte 0 -- -- 13
2019-08-09 17:00:00 33.1 23 Noroeste 46 Norte 0 -- -- 13
2019-08-09 16:00:00 33 27 Noroeste 48 Noroeste 0 -- -- 13
2019-08-09 15:00:00 32.9 26 Noroeste 40 Norte 0 -- -- 13
2019-08-09 14:00:00 31.8 26 Noroeste 44 Noroeste 0 -- -- 12
2019-08-09 13:00:00 31.6 27 Noroeste 43 Noroeste 0 -- -- 9
2019-08-09 12:00:00 29.8 24 Noroeste 38 Noroeste 0 -- -- 8
2019-08-09 11:00:00 28.2 17 Noroeste 31 Noroeste 0 -- -- 10
2019-08-09 10:00:00 26.2 16 Noroeste 28 Noroeste 0 -- -- 9
2019-08-09 09:00:00 23.9 11 Norte 23 Norte 0 -- -- 12
2019-08-09 08:00:00 22.1 21 Norte 29 Noroeste 0 -- -- 16
2019-08-09 07:00:00 22.2 22 Norte 32 Norte 0 -- -- 20
2019-08-09 06:00:00 22.5 21 Norte 30 Norte 0 -- -- 19
2019-08-09 05:00:00 23.3 25 Norte 36 Norte 0 -- -- 23
2019-08-09 04:00:00 23.8 24 Norte 34 Norte 0 -- -- 26
2019-08-09 03:00:00 23.5 21 Norte 28 Norte 0 -- -- 27
2019-08-09 02:00:00 23.5 14 Norte 21 Norte 0 -- -- 25
2019-08-09 01:00:00 23.9 14 Norte 22 Norte 0 -- -- 24
2019-08-09 00:00:00 24.4 14 Norte 20 Norte 0 -- -- 22
2019-08-08 23:00:00 24.4 8 Norte 12 Noroeste 0 -- -- 21
2019-08-08 22:00:00 24.8 3 Nordeste 16 Norte 0 -- -- 22
2019-08-08 21:00:00 26.2 12 Norte 24 Noroeste 0 -- -- 22
2019-08-08 20:00:00 30.2 18 Noroeste 28 Noroeste 0 -- -- 21
2019-08-08 19:00:00 31.3 22 Norte 44 Noroeste 0 -- -- 19
2019-08-08 18:00:00 32.2 31 Noroeste 46 Noroeste 0 -- -- 17
2019-08-08 17:00:00 32.1 29 Noroeste 41 Noroeste 0 -- -- 18
2019-08-08 16:00:00 32 25 Noroeste 40 Norte 0 -- -- 20
2019-08-08 15:00:00 30.4 24 Noroeste 43 Noroeste 0 -- -- 20
2019-08-08 14:00:00 30.2 24 Noroeste 40 Noroeste 0 -- -- 17
2019-08-08 13:00:00 29.2 16 Noroeste 34 Noroeste 0 -- -- 14
2019-08-08 12:00:00 27.9 15 Noroeste 24 Oeste 0 -- -- 15
2019-08-08 11:00:00 26.2 10 Oeste 16 Noroeste 0 -- -- 15
2019-08-08 10:00:00 26 4 Oeste 8 Noroeste 0 -- -- 16
2019-08-08 09:00:00 23.8 4 Noroeste 8 Noroeste 0 -- -- 17
2019-08-08 08:00:00 22 4 Norte 15 Norte 0 -- -- 15
2019-08-08 07:00:00 23.2 14 Norte 24 Norte 0 -- -- 11
2019-08-08 06:00:00 21.9 11 Nordeste 14 Nordeste 0 -- -- 11
2019-08-08 05:00:00 22.3 9 Nordeste 22 Nordeste 0 -- -- 10
2019-08-08 04:00:00 22.3 15 Nordeste 22 Norte 0 -- -- 12
2019-08-08 03:00:00 22.5 15 Norte 24 Norte 0 -- -- 14
2019-08-08 02:00:00 23.4 15 Norte 20 Norte 0 -- -- 13
2019-08-08 01:00:00 23.3 10 Norte 17 Norte 0 -- -- 15
2019-08-08 00:00:00 23.6 12 Nordeste 17 Nordeste 0 -- -- 16
2019-08-07 23:00:00 23.6 8 Nordeste 17 Oeste 0 -- -- 19
2019-08-07 22:00:00 24.9 0 Calma 8 Nordeste 0 -- -- 19
2019-08-07 21:00:00 25.8 4 Noroeste 13 Noroeste 0 -- -- 19
2019-08-07 20:00:00 27.4 12 Noroeste 25 Norte 0 -- -- 18
2019-08-07 19:00:00 29.3 16 Noroeste 35 Noroeste 0 -- -- 16
2019-08-07 18:00:00 32.3 25 Noroeste 36 Noroeste 0 -- -- 14
2019-08-07 17:00:00 33.2 23 Noroeste 40 Noroeste 0 -- -- 12
2019-08-07 16:00:00 31.9 19 Norte 38 Noroeste 0 -- -- 13
2019-08-07 15:00:00 31.2 28 Noroeste 49 Norte 0 -- -- 13
2019-08-07 14:00:00 32.6 24 Noroeste 47 Noroeste 0 -- -- 13
2019-08-07 13:00:00 31.6 32 Noroeste 48 Noroeste 0 -- -- 9
2019-08-07 12:00:00 30.1 20 Noroeste 37 Noroeste 0 -- -- 12
2019-08-07 11:00:00 27.7 12 Norte 21 Noroeste 0 -- -- 17
2019-08-07 10:00:00 24.5 14 Noroeste 26 Norte 0 -- -- 31
2019-08-07 09:00:00 23.7 19 Norte 28 Noroeste 0 -- -- 27
2019-08-07 08:00:00 21.9 13 Norte 21 Noroeste 0 -- -- 21
2019-08-07 07:00:00 22 8 Noroeste 18 Noroeste 0 -- -- 27
2019-08-07 06:00:00 21.4 10 Norte 16 Norte 0 -- -- 34
2019-08-07 05:00:00 22.1 14 Norte 19 Norte 0 -- -- 35
2019-08-07 04:00:00 23.1 4 Norte 16 Norte 0 -- -- 26
2019-08-07 03:00:00 24.6 14 Norte 24 Norte 0 -- -- 21
2019-08-07 02:00:00 23 9 Norte 12 Noroeste 0 -- -- 33
2019-08-07 01:00:00 23.2 10 Noroeste 19 Norte 0 -- -- 36
2019-08-07 00:00:00 24.3 13 Norte 21 Nordeste 0 -- -- 34
2019-08-06 23:00:00 23.3 11 Norte 18 Norte 0 -- -- 32
2019-08-06 22:00:00 24.2 14 Norte 21 Noroeste 0 -- -- 36
2019-08-06 21:00:00 26.5 12 Noroeste 36 Noroeste 0 -- -- 36
2019-08-06 20:00:00 30.4 25 Noroeste 49 Norte 0 -- -- 26
2019-08-06 19:00:00 31.8 26 Noroeste 43 Oeste 0 -- -- 25
2019-08-06 18:00:00 32.7 27 Noroeste 46 Noroeste 0 -- -- 24
2019-08-06 17:00:00 32.8 26 Noroeste 48 Oeste 0 -- -- 25
2019-08-06 16:00:00 32.6 26 Noroeste 50 Noroeste 0 -- -- 26
2019-08-06 15:00:00 32 30 Noroeste 53 Noroeste 0 -- -- 25
2019-08-06 14:00:00 31.8 29 Noroeste 48 Noroeste 0 -- -- 24
2019-08-06 13:00:00 31.2 25 Noroeste 41 Noroeste 0 -- -- 24
2019-08-06 12:00:00 29.4 18 Noroeste 35 Noroeste 0 -- -- 24
2019-08-06 11:00:00 26.8 16 Noroeste 31 Noroeste 0 -- -- 32
2019-08-06 10:00:00 25.4 15 Noroeste 26 Noroeste 0 -- -- 29
2019-08-06 09:00:00 22.5 14 Norte 21 Norte 0 -- -- 45
2019-08-06 08:00:00 20.7 14 Norte 19 Norte 0 -- -- 47
2019-08-06 07:00:00 21.1 14 Norte 24 Norte 0 -- -- 43
2019-08-06 06:00:00 20.7 13 Norte 18 Norte 0 -- -- 52
2019-08-06 05:00:00 20.3 14 Norte 21 Norte 0 -- -- 59
2019-08-06 04:00:00 20.8 7 Noroeste 18 Norte 0 -- -- 54
2019-08-06 03:00:00 20.5 12 Norte 14 Norte 0 -- -- 59
2019-08-06 02:00:00 20.6 8 Norte 17 Norte 0 -- -- 55
2019-08-06 01:00:00 21.8 8 Norte 12 Norte 0 -- -- 51
2019-08-06 00:00:00 22 9 Nordeste 13 Norte 0 -- -- 56
2019-08-05 23:00:00 21.6 3 Nordeste 11 Noroeste 0 -- -- 58
2019-08-05 22:00:00 21.5 9 Norte 18 Noroeste 0 -- -- 57
2019-08-05 21:00:00 24.2 16 Noroeste 22 Norte 0 -- -- 50
2019-08-05 20:00:00 28.1 18 Noroeste 25 Norte 0 -- -- 42
2019-08-05 19:00:00 29.5 18 Noroeste 30 Noroeste 0 -- -- 40
2019-08-05 18:00:00 29.5 18 Noroeste 31 Noroeste 0 -- -- 42
2019-08-05 17:00:00 30.8 19 Norte 27 Noroeste 0 -- -- 38
2019-08-05 16:00:00 30.5 16 Noroeste 28 Noroeste 0 -- -- 39
2019-08-05 15:00:00 -- -- -- -- -- -- -- -- --
2019-08-05 14:00:00 32.1 17 Noroeste 32 Noroeste 0 -- -- 29
2019-08-05 13:00:00 30.6 15 Noroeste 26 Noroeste 0 -- -- 30
2019-08-05 12:00:00 28.9 13 Noroeste 30 Noroeste 0 -- -- 35
2019-08-05 11:00:00 27.7 18 Norte 27 Noroeste 0 -- -- 39
2019-08-05 10:00:00 25.5 12 Norte 18 Noroeste 0 -- -- 40
2019-08-05 09:00:00 23.6 8 Norte 17 Norte 0 -- -- 43
2019-08-05 08:00:00 21.5 14 Norte 19 Norte 0 -- -- 48
2019-08-05 07:00:00 20.8 9 Norte 16 Norte 0 -- -- 52
2019-08-05 06:00:00 21.3 6 Norte 12 Norte 0 -- -- 50
2019-08-05 05:00:00 22.1 8 Sudeste 11 Sudeste 0 -- -- 48
2019-08-05 04:00:00 21.5 2 Este 6 Sudeste 0 -- -- 50
2019-08-05 03:00:00 22.2 4 Este 11 Sudeste 0 -- -- 49
2019-08-05 02:00:00 22.8 0 Calma 10 Este 0 -- -- 47
2019-08-05 01:00:00 24.1 9 Sudeste 19 Este 0 -- -- 44
2019-08-05 00:00:00 21.8 4 Norte 14 Norte 0 -- -- 60
2019-08-04 23:00:00 21.3 12 Norte 18 Norte 0 -- -- 63
2019-08-04 22:00:00 21.7 14 Norte 18 Norte 0 -- -- 63
2019-08-04 21:00:00 24 8 Noroeste 17 Noroeste 0 -- -- 54
2019-08-04 20:00:00 28.2 11 Noroeste 19 Norte 0 -- -- 45
2019-08-04 19:00:00 28.4 12 Norte 26 Noroeste 0 -- -- 46
2019-08-04 18:00:00 29 17 Noroeste 24 Noroeste 0 -- -- 46
2019-08-04 17:00:00 28.7 17 Noroeste 27 Oeste 0 -- -- 46
2019-08-04 16:00:00 30.8 17 Noroeste 26 Noroeste 0 -- -- 38
2019-08-04 15:00:00 28.8 16 Oeste 28 Oeste 0 -- -- 39
2019-08-04 14:00:00 29.5 15 Noroeste 26 Oeste 0 -- -- 37
2019-08-04 13:00:00 27.9 10 Oeste 21 Oeste 0 -- -- 45
2019-08-04 12:00:00 26.9 8 Noroeste 17 Noroeste 0 -- -- 47
2019-08-04 11:00:00 24.6 4 Noroeste 13 Oeste 0 -- -- 54
2019-08-04 10:00:00 24 4 Noroeste 8 Oeste 0 -- -- 51
2019-08-04 09:00:00 22.4 3 Noroeste 13 Noroeste 0 -- -- 55
2019-08-04 08:00:00 20.7 2 Noroeste 6 Nordeste 0 -- -- 60
2019-08-04 07:00:00 20.5 5 Este 7 Nordeste 0 -- -- 60
2019-08-04 06:00:00 20.3 0 Calma 9 Norte 0 -- -- 58
2019-08-04 05:00:00 19.7 8 Norte 11 Norte 0 -- -- 61
2019-08-04 04:00:00 18.7 6 Norte 13 Noroeste 0 -- -- 79
2019-08-04 03:00:00 20.4 4 Norte 14 Sudeste 0 -- -- 55
2019-08-04 02:00:00 16.7 12 Sudeste 17 Sudeste 0 -- -- 95
2019-08-04 01:00:00 16.8 8 Norte 16 Norte 0 -- -- 92
2019-08-04 00:00:00 21.7 3 Nordeste 9 Nordeste 0 -- -- 63
2019-08-03 23:00:00 20.2 2 Nordeste 13 Norte 0 -- -- 74
2019-08-03 22:00:00 20.9 7 Norte 11 Norte 0 -- -- 72
2019-08-03 21:00:00 22.9 8 Noroeste 9 Noroeste 0 -- -- 69
2019-08-03 20:00:00 26.1 6 Noroeste 16 Oeste 0 -- -- 56
2019-08-03 19:00:00 27 12 Noroeste 22 Noroeste 0 -- -- 54
2019-08-03 18:00:00 28.4 13 Noroeste 22 Noroeste 0 -- -- 49
2019-08-03 17:00:00 28.4 15 Noroeste 31 Noroeste 0 -- -- 49
2019-08-03 16:00:00 29.6 15 Noroeste 32 Noroeste 0 -- -- 41
2019-08-03 15:00:00 28.6 18 Noroeste 31 Noroeste 0 -- -- 42
2019-08-03 14:00:00 28.1 15 Norte 26 Norte 0 -- -- 39
2019-08-03 13:00:00 24.5 12 Oeste 24 Oeste 0 -- -- 57
2019-08-03 12:00:00 23 13 Oeste 20 Oeste 0 -- -- 61
2019-08-03 11:00:00 22.2 9 Sudoeste 21 Noroeste 0 -- -- 63
2019-08-03 10:00:00 21.1 16 Oeste 26 Noroeste 0 -- -- 66
2019-08-03 09:00:00 22 8 Oeste 12 Este 0 -- -- 57
2019-08-03 08:00:00 19.9 9 Este 13 Este 0 -- -- 57
2019-08-03 07:00:00 19.5 6 Norte 9 Norte 0 -- -- 63
2019-08-03 06:00:00 19.6 9 Norte 14 Norte 0 -- -- 62
2019-08-03 05:00:00 20.7 3 Noroeste 7 Noroeste 0 -- -- 56
2019-08-03 04:00:00 20.6 0 Calma 6 Nordeste 0 -- -- 59
2019-08-03 03:00:00 20.4 3 Nordeste 6 Nordeste 0 -- -- 56
2019-08-03 02:00:00 19.9 4 Sudeste 6 Sudeste 0 -- -- 63
2019-08-03 01:00:00 20 4 Sudeste 6 Sudeste 0 -- -- 61
2019-08-03 00:00:00 20.1 2 Nordeste 9 Sudeste 0 -- -- 61
2019-08-02 23:00:00 20.5 8 Sudeste 11 Sudeste 0 -- -- 61
2019-08-02 22:00:00 20.4 5 Sudeste 13 Noroeste 0 -- -- 62
2019-08-02 21:00:00 22.6 10 Noroeste 20 Noroeste 0 -- -- 57
2019-08-02 20:00:00 26.9 13 Noroeste 19 Noroeste 0 -- -- 43
2019-08-02 19:00:00 27.5 17 Noroeste 29 Noroeste 0 -- -- 44
2019-08-02 18:00:00 27.9 20 Noroeste 34 Oeste 0 -- -- 46
2019-08-02 17:00:00 28.3 19 Noroeste 30 Noroeste 0 -- -- 44
2019-08-02 16:00:00 27.3 11 Oeste 25 Oeste 0 -- -- 46
2019-08-02 15:00:00 27.6 15 Noroeste 33 Oeste 0 -- -- 50
2019-08-02 14:00:00 27 14 Oeste 32 Norte 0 -- -- 48
2019-08-02 13:00:00 26.3 17 Oeste 26 Oeste 0 -- -- 49
2019-08-02 12:00:00 25.9 12 Noroeste 19 Noroeste 0 -- -- 48
2019-08-02 11:00:00 26.2 10 Oeste 16 Oeste 0 -- -- 39
2019-08-02 10:00:00 25.2 9 Noroeste 14 Noroeste 0 -- -- 42
2019-08-02 09:00:00 23.7 9 Noroeste 13 Nordeste 0 -- -- 44
2019-08-02 08:00:00 21.1 8 Norte 18 Norte 0 -- -- 52
2019-08-02 07:00:00 20.9 9 Nordeste 17 Norte 0 -- -- 53
2019-08-02 06:00:00 20.8 7 Norte 12 Norte 0 -- -- 54
2019-08-02 05:00:00 20.3 3 Este 14 Norte 0 -- -- 57
2019-08-02 04:00:00 19.1 10 Nordeste 13 Nordeste 0 -- -- 66
2019-08-02 03:00:00 18.2 12 Nordeste 18 Norte 0 -- -- 63
2019-08-02 02:00:00 18.6 14 Norte 20 Noroeste 0 -- -- 70
2019-08-02 01:00:00 23.3 2 Este 6 Este 0 -- -- 37
2019-08-02 00:00:00 23.4 3 Este 12 Sudeste 0 -- -- 38
2019-08-01 23:00:00 22.1 6 Sudeste 9 Sudeste 0 -- -- 53
2019-08-01 22:00:00 22.8 3 Nordeste 8 Nordeste 0 -- -- 50
2019-08-01 21:00:00 23.7 2 Oeste 10 Norte 0 -- -- 60
2019-08-01 20:00:00 28.8 5 Noroeste 17 Oeste 0 -- -- 40
2019-08-01 19:00:00 29.9 10 Noroeste 21 Noroeste 0 -- -- 36
2019-08-01 18:00:00 29.7 11 Noroeste 26 Noroeste 0 -- -- 35
2019-08-01 17:00:00 29.7 22 Noroeste 29 Noroeste 0 -- -- 42
2019-08-01 16:00:00 29.1 15 Noroeste 23 Noroeste 0 -- -- 41
2019-08-01 15:00:00 27.4 15 Noroeste 26 Oeste 0 -- -- 46
2019-08-01 14:00:00 26 13 Noroeste 21 Oeste 0 -- -- 49
2019-08-01 13:00:00 23.9 9 Noroeste 30 Noroeste 0 -- -- 55
2019-08-01 12:00:00 22.2 19 Noroeste 42 Noroeste 0 -- -- 59
2019-08-01 11:00:00 27.1 9 Noroeste 21 Oeste 0 -- -- 35
2019-08-01 10:00:00 23.9 3 Sudoeste 36 Norte 0 -- -- 40
2019-08-01 09:00:00 18.5 17 Noroeste 29 Oeste 0 -- -- 55
2019-08-01 08:00:00 20.5 5 Norte 17 Sudeste 0 -- -- 47
2019-08-01 07:00:00 16 12 Sudeste 17 Sudeste 0 -- -- 59
2019-08-01 06:00:00 16.9 6 Norte 11 Norte 0 -- -- 57
2019-08-01 05:00:00 16.4 7 Sur 10 Sudeste 0 -- -- 60
2019-08-01 04:00:00 17.5 9 Sudeste 11 Sudeste 0 -- -- 54
2019-08-01 03:00:00 18.5 0 Calma 8 Norte 0 -- -- 53
2019-08-01 02:00:00 19.7 3 Norte 9 Norte 0 -- -- 49
2019-08-01 01:00:00 20.5 6 Noroeste 12 Sudeste 0 -- -- 47
2019-08-01 00:00:00 19.5 11 Sudeste 19 Sudeste 0 -- -- 50
2019-07-31 23:00:00 18.4 12 Sudeste 17 Sudeste 0 -- -- 65
2019-07-31 22:00:00 19.2 4 Sur 18 Sudoeste 0 -- -- 64
2019-07-31 21:00:00 21.5 4 Sudoeste 13 Sudoeste 0 -- -- 63
2019-07-31 20:00:00 25.1 6 Sudoeste 19 Sur 0 -- -- 51
2019-07-31 19:00:00 26.5 9 Sudoeste 24 Sudoeste 0 -- -- 47
2019-07-31 18:00:00 27.3 10 Sudoeste 21 Sur 0 -- -- 42
2019-07-31 17:00:00 29.2 10 Sur 24 Sudeste 0 -- -- 37
2019-07-31 16:00:00 26.3 14 Sudoeste 24 Sur 0 -- -- 40
2019-07-31 15:00:00 27.6 12 Sur 27 Sur 0 -- -- 36
2019-07-31 14:00:00 27.3 9 Sur 24 Sudoeste 0 -- -- 35
2019-07-31 13:00:00 26 12 Sur 33 Sur 0 -- -- 43
2019-07-31 12:00:00 25.9 10 Sudeste 19 Sudeste 0 -- -- 37
2019-07-31 11:00:00 21.8 10 Sudeste 15 Sudeste 0 -- -- 45
2019-07-31 10:00:00 17.1 9 Sur 24 Sudeste 0 -- -- 60
2019-07-31 09:00:00 18.4 8 Sudeste 23 Sur 0 -- -- 49
2019-07-31 08:00:00 19.1 9 Sudeste 14 Sudeste 0 -- -- 40
2019-07-31 07:00:00 19.7 5 Norte 18 Oeste 0 -- -- 46
2019-07-31 06:00:00 23.3 8 Noroeste 17 Noroeste 0 -- -- 38
2019-07-31 05:00:00 23.6 10 Este 27 Este 0 -- -- 39
2019-07-31 04:00:00 18.7 13 Sudeste 20 Sudeste 0 -- -- 57
2019-07-31 03:00:00 17 13 Sur 21 Sur 0 -- -- 65
2019-07-31 02:00:00 16.5 6 Sudeste 14 Sur 0 -- -- 66
2019-07-31 01:00:00 17.5 4 Sudoeste 8 Oeste 0 -- -- 62
2019-07-31 00:00:00 18.1 2 Sur 15 Sudoeste 0 -- -- 60
2019-07-30 23:00:00 20.1 9 Sudoeste 17 Sudoeste 0 -- -- 57
2019-07-30 22:00:00 23.2 11 Este 15 Sudeste 0 -- -- 32
2019-07-30 21:00:00 22.9 5 Oeste 10 Sudoeste 0 -- -- 48
2019-07-30 20:00:00 25.3 6 Sudoeste 18 Oeste 0 -- -- 42
2019-07-30 19:00:00 26.6 11 Noroeste 26 Noroeste 0 -- -- 39
2019-07-30 18:00:00 29.1 17 Noroeste 31 Noroeste 0 -- -- 34
2019-07-30 17:00:00 28.3 18 Noroeste 33 Oeste 0 -- -- 33
2019-07-30 16:00:00 28.9 19 Noroeste 31 Noroeste 0 -- -- 30
2019-07-30 15:00:00 27.9 20 Noroeste 35 Noroeste 0 -- -- 34
2019-07-30 14:00:00 28.2 22 Noroeste 35 Noroeste 0 -- -- 35
2019-07-30 13:00:00 27.4 13 Oeste 28 Oeste 0 -- -- 35
2019-07-30 12:00:00 25.6 12 Oeste 29 Oeste 0 -- -- 37
2019-07-30 11:00:00 24.4 10 Oeste 17 Oeste 0 -- -- 40
2019-07-30 10:00:00 23.3 10 Noroeste 17 Oeste 0 -- -- 42
2019-07-30 09:00:00 21.8 6 Noroeste 15 Noroeste 0 -- -- 47
2019-07-30 08:00:00 19.7 9 Norte 14 Norte 0 -- -- 53
2019-07-30 07:00:00 19.4 4 Este 11 Norte 0 -- -- 52
2019-07-30 06:00:00 19.6 3 Norte 8 Nordeste 0 -- -- 49
2019-07-30 05:00:00 19.8 4 Este 6 Sudoeste 0 -- -- 49
2019-07-30 04:00:00 20.7 3 Oeste 5 Este 0 -- -- 47
2019-07-30 03:00:00 20.8 2 Nordeste 7 Este 0 -- -- 47
2019-07-30 02:00:00 21.2 3 Sudeste 8 Sudeste 0 -- -- 44
2019-07-30 01:00:00 20.6 4 Nordeste 10 Nordeste 0 -- -- 46
2019-07-30 00:00:00 21 6 Este 13 Este 0 -- -- 43
2019-07-29 23:00:00 21.1 8 Sudeste 20 Sudeste 0 -- -- 45
2019-07-29 22:00:00 22 7 Sudeste 18 Este 0 -- -- 47
2019-07-29 21:00:00 24.8 2 Norte 15 Norte 0 -- -- 45
2019-07-29 20:00:00 26.6 11 Norte 20 Noroeste 0 -- -- 41
2019-07-29 19:00:00 27.2 16 Noroeste 26 Noroeste 0 -- -- 40
2019-07-29 18:00:00 28.5 16 Noroeste 32 Noroeste 0 -- -- 38
2019-07-29 17:00:00 27.7 17 Noroeste 31 Noroeste 0 -- -- 38
2019-07-29 16:00:00 27.7 19 Noroeste 33 Noroeste 0 -- -- 36
2019-07-29 15:00:00 25.9 19 Noroeste 35 Noroeste 0 -- -- 41
2019-07-29 14:00:00 26.3 18 Noroeste 28 Noroeste 0 -- -- 38
2019-07-29 13:00:00 25.2 15 Noroeste 28 Noroeste 0 -- -- 41
2019-07-29 12:00:00 24.5 15 Noroeste 25 Noroeste 0 -- -- 42
2019-07-29 11:00:00 22.9 10 Noroeste 18 Oeste 0 -- -- 45
2019-07-29 10:00:00 21.5 6 Noroeste 9 Noroeste 0 -- -- 48
2019-07-29 09:00:00 19.8 2 Este 9 Este 0 -- -- 50
2019-07-29 08:00:00 17.1 3 Sudeste 5 Sudeste 0 -- -- 53
2019-07-29 07:00:00 17.2 0 Calma 6 Nordeste 0 -- -- 65
2019-07-29 06:00:00 16.7 0 Calma 2 Sur 0 -- -- 57
2019-07-29 05:00:00 16.6 2 Oeste 7 Noroeste 0 -- -- 63
2019-07-29 04:00:00 17.8 0 Calma 5 Nordeste 0 -- -- 60
2019-07-29 03:00:00 17.8 3 Sudeste 4 Este 0 -- -- 63
2019-07-29 02:00:00 17.5 0 Calma 4 Nordeste 0 -- -- 68
2019-07-29 01:00:00 17.8 3 Nordeste 6 Nordeste 0 -- -- 65
2019-07-29 00:00:00 17.4 5 Sudeste 12 Sudeste 0 -- -- 71
2019-07-28 23:00:00 17.2 6 Sudeste 10 Sudeste 0 -- -- 72
2019-07-28 22:00:00 17.7 3 Sudeste 5 Sudeste 0 -- -- 71
2019-07-28 21:00:00 20.7 4 Noroeste 15 Noroeste 0 -- -- 60
2019-07-28 20:00:00 22.6 10 Oeste 23 Noroeste 0 -- -- 55
2019-07-28 19:00:00 24.4 17 Noroeste 28 Norte 0 -- -- 51
2019-07-28 18:00:00 24.2 17 Noroeste 30 Noroeste 0 -- -- 50
2019-07-28 17:00:00 24.7 19 Noroeste 31 Noroeste 0 -- -- 49
2019-07-28 16:00:00 24.7 17 Noroeste 34 Noroeste 0 -- -- 48
2019-07-28 15:00:00 24.6 15 Noroeste 31 Noroeste 0 -- -- 47
2019-07-28 14:00:00 23.7 13 Noroeste 33 Oeste 0 -- -- 49
2019-07-28 13:00:00 22.9 12 Oeste 28 Oeste 0 -- -- 45
2019-07-28 12:00:00 21.8 8 Sudoeste 25 Sur 0 -- -- 48
2019-07-28 11:00:00 21.1 9 Sur 28 Sur 0 -- -- 50
2019-07-28 10:00:00 19.5 9 Sur 22 Sur 0 -- -- 55
2019-07-28 09:00:00 18.1 8 Sur 19 Sudeste 0 -- -- 57
2019-07-28 08:00:00 16.1 8 Sudeste 17 Sudeste 0 -- -- 62
2019-07-28 07:00:00 15.3 6 Sudeste 23 Sur 0 -- -- 61
2019-07-28 06:00:00 15.5 6 Sudeste 10 Sudeste 0 -- -- 60
2019-07-28 05:00:00 16.1 7 Sudeste 15 Sudeste 0 -- -- 57
2019-07-28 04:00:00 17 5 Sudeste 10 Sudeste 0 -- -- 54
2019-07-28 03:00:00 17.4 5 Sudeste 12 Sudeste 0 -- -- 54
2019-07-28 02:00:00 17.8 6 Sudeste 19 Este 0 -- -- 51
2019-07-28 01:00:00 18.6 9 Este 21 Sudeste 0 -- -- 48
2019-07-28 00:00:00 18.7 5 Nordeste 17 Este 0 -- -- 49
2019-07-27 23:00:00 19.6 2 Este 9 Nordeste 0 -- -- 45
2019-07-26 12:00:00 -- -- -- -- -- -- -- -- --
2019-07-26 11:00:00 24.6 18 Noroeste 27 Noroeste 0 -- -- 14
2019-07-26 10:00:00 22.8 13 Noroeste 17 Noroeste 0 -- -- 15
2019-07-26 09:00:00 21.7 10 Norte 13 Norte 0 -- -- 13
2019-07-26 08:00:00 18.8 5 Norte 13 Norte 0 -- -- 20
2019-07-26 07:00:00 18.4 10 Norte 18 Noroeste 0 -- -- 27
2019-07-26 06:00:00 18 10 Noroeste 19 Noroeste 0 -- -- 37
2019-07-26 05:00:00 18.6 6 Noroeste 23 Norte 0 -- -- 37
2019-07-26 04:00:00 19.8 17 Norte 24 Norte 0 -- -- 34
2019-07-26 03:00:00 19.7 10 Norte 13 Norte 0 -- -- 36
2019-07-26 02:00:00 19.1 8 Norte 19 Norte 0 -- -- 37
2019-07-26 01:00:00 20 12 Norte 20 Norte 0 -- -- 35
2019-07-26 00:00:00 20.1 8 Norte 14 Norte 0 -- -- 46
2019-07-25 23:00:00 20.9 4 Norte 8 Norte 0 -- -- 46
2019-07-25 22:00:00 22 3 Nordeste 19 Norte 0 -- -- 45
2019-07-25 21:00:00 23.9 15 Norte 23 Noroeste 0 -- -- 40
2019-07-25 20:00:00 26.9 18 Noroeste 25 Noroeste 0 -- -- 35
2019-07-25 19:00:00 27.5 18 Noroeste 30 Noroeste 0 -- -- 35
2019-07-25 18:00:00 27.8 18 Noroeste 33 Noroeste 0 -- -- 35
2019-07-25 17:00:00 28.3 22 Noroeste 42 Noroeste 0 -- -- 34
2019-07-25 16:00:00 28.2 27 Noroeste 37 Noroeste 0 -- -- 32
2019-07-25 15:00:00 29.2 22 Noroeste 35 Noroeste 0 -- -- 28
2019-07-25 14:00:00 27.8 21 Noroeste 35 Noroeste 0 -- -- 30
2019-07-25 13:00:00 27.2 15 Oeste 30 Oeste 0 -- -- 28
2019-07-25 12:00:00 25.9 14 Sudoeste 24 Noroeste 0 -- -- 28
2019-07-25 11:00:00 25.5 9 Sudoeste 21 Sudoeste 0 -- -- 28
2019-07-25 10:00:00 24.8 9 Sur 17 Este 0 -- -- 27
2019-07-25 09:00:00 23.2 6 Sudeste 16 Sudeste 0 -- -- 28
2019-07-25 08:00:00 20.6 7 Sudeste 12 Sudeste 0 -- -- 25
2019-07-25 07:00:00 20.2 7 Sudeste 13 Sudeste 0 -- -- 25
2019-07-25 06:00:00 20.6 7 Sudeste 14 Este 0 -- -- 25
2019-07-25 05:00:00 20.5 6 Sudeste 14 Sudeste 0 -- -- 26
2019-07-25 04:00:00 20.7 6 Sudeste 13 Sudeste 0 -- -- 26
2019-07-25 03:00:00 21.1 8 Sudeste 15 Sudeste 0 -- -- 26
2019-07-25 02:00:00 20.8 10 Sudeste 16 Sudeste 0 -- -- 27
2019-07-25 01:00:00 21.3 9 Sudeste 15 Sudeste 0 -- -- 28
2019-07-25 00:00:00 21.2 7 Sudeste 14 Nordeste 0 -- -- 30
2019-07-24 23:00:00 21.2 7 Sudeste 15 Sudeste 0 -- -- 35
2019-07-24 22:00:00 21.8 7 Sudeste 19 Sur 0 -- -- 37
2019-07-24 21:00:00 24.3 6 Sudeste 17 Sur 0 -- -- 33
2019-07-24 20:00:00 27.9 7 Sur 22 Sur 0 -- -- 27
2019-07-24 19:00:00 28.7 12 Sur 27 Sur 0 -- -- 25
2019-07-24 18:00:00 29.6 12 Sur 27 Sudoeste 0 -- -- 25
2019-07-24 17:00:00 29.4 15 Sur 32 Sudoeste 0 -- -- 25
2019-07-24 16:00:00 29.5 13 Sur 32 Sur 0 -- -- 25
2019-07-24 15:00:00 30.3 11 Sur 35 Sur 0 -- -- 24
2019-07-24 14:00:00 30.1 11 Sur 34 Sur 0 -- -- 23
2019-07-24 13:00:00 28.8 11 Sudeste 32 Sudeste 0 -- -- 24
2019-07-24 12:00:00 27.3 14 Sudeste 34 Sudeste 0 -- -- 25
2019-07-24 11:00:00 26.1 12 Sudeste 32 Sur 0 -- -- 26
2019-07-24 10:00:00 25 11 Sur 24 Sudeste 0 -- -- 27
2019-07-24 09:00:00 23.7 10 Sudeste 18 Sudeste 0 -- -- 30
2019-07-24 08:00:00 22.1 7 Sudeste 17 Sudeste 0 -- -- 31
2019-07-24 07:00:00 21.9 9 Sudeste 21 Sudeste 0 -- -- 30
2019-07-24 06:00:00 21.2 10 Sudeste 15 Sudeste 0 -- -- 31
2019-07-24 05:00:00 21.3 8 Sudeste 17 Sudeste 0 -- -- 31
2019-07-24 04:00:00 20.7 5 Sudeste 25 Sudeste 0 -- -- 34
2019-07-24 03:00:00 21.7 9 Sudeste 23 Este 0 -- -- 31
2019-07-24 02:00:00 22 12 Sudeste 28 Sudeste 0 -- -- 31
2019-07-24 01:00:00 21.7 11 Sudeste 25 Sudeste 0 -- -- 35
2019-07-24 00:00:00 21.1 9 Sudeste 21 Sudeste 0 -- -- 31
2019-07-23 23:00:00 22.4 10 Sudeste 21 Sudeste 0 -- -- 28
2019-07-23 22:00:00 22.7 9 Sudeste 23 Sudeste 0 -- -- 27
2019-07-23 21:00:00 24.1 11 Sudeste 30 Sur 0 -- -- 27
2019-07-23 20:00:00 27.3 10 Sudeste 28 Sur 0 -- -- 23
2019-07-23 19:00:00 29.4 9 Sudeste 29 Sur 0 -- -- 23
2019-07-23 18:00:00 30.8 8 Sur 28 Sur 0 -- -- 22
2019-07-23 17:00:00 30.2 11 Sur 32 Sur 0 -- -- 22
2019-07-23 16:00:00 30.1 12 Sur 29 Sur 0 -- -- 22
2019-07-23 15:00:00 31 10 Sur 28 Sur 0 -- -- 21
2019-07-23 14:00:00 30.9 13 Sur 33 Sudeste 0 -- -- 20
2019-07-23 13:00:00 29.8 12 Sudeste 31 Sur 0 -- -- 22
2019-07-23 12:00:00 28.3 14 Sur 30 Sudeste 0 -- -- 23
2019-07-23 11:00:00 26.6 11 Sur 32 Sudeste 0 -- -- 24
2019-07-23 10:00:00 25.2 11 Sudeste 29 Sur 0 -- -- 27
2019-07-23 09:00:00 23.4 9 Sudeste 29 Sur 0 -- -- 29
2019-07-23 08:00:00 21.9 7 Sudeste 24 Sudeste 0 -- -- 29
2019-07-23 07:00:00 21.7 11 Sudeste 22 Sudeste 0 -- -- 28
2019-07-23 06:00:00 21.3 9 Sudeste 27 Sudeste 0 -- -- 29
2019-07-23 05:00:00 21.7 14 Sur 28 Sudeste 0 -- -- 26
2019-07-23 04:00:00 21.6 10 Sudeste 19 Sudeste 0 -- -- 24
2019-07-23 03:00:00 21.4 4 Sudeste 24 Sudeste 0 -- -- 21
2019-07-23 02:00:00 21.5 10 Sudeste 25 Sudeste 0 -- -- 22
2019-07-23 01:00:00 19.9 0 Calma 21 Sudeste 0 -- -- 32
2019-07-23 00:00:00 21.1 8 Sudeste 18 Sudeste 0 -- -- 34